METAR Data
IDs: Format: Raw Decoded Include TAF

Data at: 2227 UTC 01 Dec 2021

KSIK 012215Z AUTO 23005KT 10SM CLR 16/12 A2996 RMK AO2 TSNO